sensor_id;sensor_type;location;lat;lon;timestamp;P1;durP1;ratioP1;P2;durP2;ratioP2
5121;SDS011;2563;52.242;7.956;2023-02-15T00:01:26;25.13;;;12.60;;
5121;SDS011;2563;52.242;7.956;2023-02-15T00:03:52;33.37;;;12.90;;
5121;SDS011;2563;52.242;7.956;2023-02-15T00:06:17;27.40;;;11.90;;
5121;SDS011;2563;52.242;7.956;2023-02-15T00:08:43;25.70;;;11.77;;
5121;SDS011;2563;52.242;7.956;2023-02-15T00:11:09;30.50;;;12.80;;
5121;SDS011;2563;52.242;7.956;2023-02-15T00:13:36;28.90;;;12.40;;
5121;SDS011;2563;52.242;7.956;2023-02-15T00:16:04;28.07;;;11.63;;
5121;SDS011;2563;52.242;7.956;2023-02-15T00:18:31;30.40;;;12.50;;
5121;SDS011;2563;52.242;7.956;2023-02-15T00:20:57;36.30;;;13.40;;
5121;SDS011;2563;52.242;7.956;2023-02-15T00:23:23;24.20;;;11.30;;
5121;SDS011;2563;52.242;7.956;2023-02-15T00:25:49;26.93;;;11.90;;
5121;SDS011;2563;52.242;7.956;2023-02-15T00:28:15;31.50;;;11.33;;
5121;SDS011;2563;52.242;7.956;2023-02-15T00:30:40;33.57;;;12.10;;
5121;SDS011;2563;52.242;7.956;2023-02-15T00:33:05;27.10;;;11.60;;
5121;SDS011;2563;52.242;7.956;2023-02-15T00:35:31;31.27;;;12.00;;
5121;SDS011;2563;52.242;7.956;2023-02-15T00:37:56;31.90;;;12.67;;
5121;SDS011;2563;52.242;7.956;2023-02-15T00:40:22;40.67;;;12.70;;
5121;SDS011;2563;52.242;7.956;2023-02-15T00:42:47;27.43;;;11.53;;
5121;SDS011;2563;52.242;7.956;2023-02-15T00:45:12;27.70;;;11.30;;
5121;SDS011;2563;52.242;7.956;2023-02-15T00:47:38;24.13;;;11.30;;
5121;SDS011;2563;52.242;7.956;2023-02-15T00:50:03;22.47;;;11.50;;
5121;SDS011;2563;52.242;7.956;2023-02-15T00:52:30;26.83;;;11.50;;
5121;SDS011;2563;52.242;7.956;2023-02-15T00:54:55;23.67;;;11.10;;
5121;SDS011;2563;52.242;7.956;2023-02-15T00:57:21;29.93;;;11.63;;
5121;SDS011;2563;52.242;7.956;2023-02-15T00:59:46;27.30;;;10.90;;
5121;SDS011;2563;52.242;7.956;2023-02-15T01:02:11;26.17;;;11.53;;
5121;SDS011;2563;52.242;7.956;2023-02-15T01:04:37;35.30;;;12.80;;
5121;SDS011;2563;52.242;7.956;2023-02-15T01:07:02;29.37;;;12.90;;
5121;SDS011;2563;52.242;7.956;2023-02-15T01:09:28;28.47;;;12.90;;
5121;SDS011;2563;52.242;7.956;2023-02-15T01:11:54;29.93;;;11.77;;
5121;SDS011;2563;52.242;7.956;2023-02-15T01:14:19;26.73;;;11.97;;
5121;SDS011;2563;52.242;7.956;2023-02-15T01:16:45;27.30;;;12.73;;
5121;SDS011;2563;52.242;7.956;2023-02-15T01:19:10;29.00;;;11.47;;
5121;SDS011;2563;52.242;7.956;2023-02-15T01:21:35;26.93;;;11.43;;
5121;SDS011;2563;52.242;7.956;2023-02-15T01:24:01;32.20;;;11.83;;
5121;SDS011;2563;52.242;7.956;2023-02-15T01:26:26;30.77;;;12.10;;
5121;SDS011;2563;52.242;7.956;2023-02-15T01:28:52;35.53;;;12.67;;
5121;SDS011;2563;52.242;7.956;2023-02-15T01:31:18;28.50;;;11.30;;
5121;SDS011;2563;52.242;7.956;2023-02-15T01:33:45;22.73;;;11.03;;
5121;SDS011;2563;52.242;7.956;2023-02-15T01:36:12;24.40;;;10.00;;
5121;SDS011;2563;52.242;7.956;2023-02-15T01:38:37;25.93;;;12.07;;
5121;SDS011;2563;52.242;7.956;2023-02-15T01:41:04;24.97;;;11.07;;
5121;SDS011;2563;52.242;7.956;2023-02-15T01:43:49;26.83;;;10.00;;
5121;SDS011;2563;52.242;7.956;2023-02-15T01:46:17;27.97;;;10.77;;
5121;SDS011;2563;52.242;7.956;2023-02-15T01:48:48;24.20;;;10.60;;
5121;SDS011;2563;52.242;7.956;2023-02-15T01:51:19;24.80;;;10.77;;
5121;SDS011;2563;52.242;7.956;2023-02-15T01:53:49;25.30;;;11.40;;
5121;SDS011;2563;52.242;7.956;2023-02-15T01:56:20;23.93;;;10.10;;
5121;SDS011;2563;52.242;7.956;2023-02-15T01:58:49;25.40;;;10.33;;
5121;SDS011;2563;52.242;7.956;2023-02-15T02:01:17;28.53;;;10.80;;
5121;SDS011;2563;52.242;7.956;2023-02-15T02:06:47;27.97;;;10.53;;
5121;SDS011;2563;52.242;7.956;2023-02-15T02:09:14;27.73;;;10.00;;
5121;SDS011;2563;52.242;7.956;2023-02-15T02:11:40;25.90;;;11.90;;
5121;SDS011;2563;52.242;7.956;2023-02-15T02:14:06;24.93;;;10.27;;
5121;SDS011;2563;52.242;7.956;2023-02-15T02:35:27;21.50;;;9.13;;
5121;SDS011;2563;52.242;7.956;2023-02-15T02:38:08;22.93;;;9.77;;
5121;SDS011;2563;52.242;7.956;2023-02-15T02:49:05;22.90;;;9.67;;
5121;SDS011;2563;52.242;7.956;2023-02-15T02:51:30;25.03;;;9.53;;
5121;SDS011;2563;52.242;7.956;2023-02-15T02:53:56;30.93;;;11.10;;
5121;SDS011;2563;52.242;7.956;2023-02-15T02:56:45;24.17;;;10.43;;
5121;SDS011;2563;52.242;7.956;2023-02-15T02:59:24;24.03;;;10.57;;
5121;SDS011;2563;52.242;7.956;2023-02-15T03:04:35;23.67;;;10.43;;
5121;SDS011;2563;52.242;7.956;2023-02-15T03:07:05;25.90;;;10.30;;
5121;SDS011;2563;52.242;7.956;2023-02-15T03:09:38;20.47;;;9.00;;
5121;SDS011;2563;52.242;7.956;2023-02-15T03:12:10;20.97;;;9.90;;
5121;SDS011;2563;52.242;7.956;2023-02-15T03:14:38;24.60;;;10.80;;
5121;SDS011;2563;52.242;7.956;2023-02-15T03:17:05;25.13;;;9.83;;
5121;SDS011;2563;52.242;7.956;2023-02-15T03:19:34;21.40;;;9.67;;
5121;SDS011;2563;52.242;7.956;2023-02-15T03:22:06;22.77;;;9.50;;
5121;SDS011;2563;52.242;7.956;2023-02-15T03:24:37;19.83;;;9.60;;
5121;SDS011;2563;52.242;7.956;2023-02-15T03:27:10;23.60;;;9.67;;
5121;SDS011;2563;52.242;7.956;2023-02-15T03:29:42;20.83;;;8.97;;
5121;SDS011;2563;52.242;7.956;2023-02-15T03:32:11;20.97;;;9.37;;
5121;SDS011;2563;52.242;7.956;2023-02-15T03:34:39;22.87;;;9.30;;
5121;SDS011;2563;52.242;7.956;2023-02-15T03:39:56;23.50;;;9.23;;
5121;SDS011;2563;52.242;7.956;2023-02-15T03:42:49;28.63;;;9.97;;
5121;SDS011;2563;52.242;7.956;2023-02-15T03:45:25;29.10;;;9.83;;
5121;SDS011;2563;52.242;7.956;2023-02-15T03:47:55;26.17;;;10.00;;
5121;SDS011;2563;52.242;7.956;2023-02-15T03:50:24;22.07;;;9.30;;
5121;SDS011;2563;52.242;7.956;2023-02-15T03:53:16;23.10;;;8.87;;
5121;SDS011;2563;52.242;7.956;2023-02-15T03:55:48;25.67;;;9.53;;
5121;SDS011;2563;52.242;7.956;2023-02-15T03:58:18;26.10;;;9.90;;
5121;SDS011;2563;52.242;7.956;2023-02-15T04:01:05;25.03;;;9.77;;
5121;SDS011;2563;52.242;7.956;2023-02-15T04:03:59;25.47;;;9.47;;
5121;SDS011;2563;52.242;7.956;2023-02-15T04:06:28;30.33;;;10.33;;
5121;SDS011;2563;52.242;7.956;2023-02-15T04:08:53;26.07;;;9.83;;
5121;SDS011;2563;52.242;7.956;2023-02-15T04:11:37;21.07;;;9.20;;
5121;SDS011;2563;52.242;7.956;2023-02-15T04:14:03;24.53;;;10.13;;
5121;SDS011;2563;52.242;7.956;2023-02-15T04:16:48;23.37;;;9.10;;
5121;SDS011;2563;52.242;7.956;2023-02-15T04:19:14;23.20;;;9.50;;
5121;SDS011;2563;52.242;7.956;2023-02-15T04:21:58;23.20;;;9.73;;
5121;SDS011;2563;52.242;7.956;2023-02-15T04:24:42;33.57;;;10.33;;
5121;SDS011;2563;52.242;7.956;2023-02-15T04:27:26;28.37;;;10.70;;
5121;SDS011;2563;52.242;7.956;2023-02-15T04:29:51;23.83;;;8.67;;
5121;SDS011;2563;52.242;7.956;2023-02-15T04:32:16;27.17;;;9.83;;
5121;SDS011;2563;52.242;7.956;2023-02-15T04:34:42;24.70;;;9.90;;
5121;SDS011;2563;52.242;7.956;2023-02-15T04:37:07;27.20;;;10.13;;
5121;SDS011;2563;52.242;7.956;2023-02-15T04:39:32;22.27;;;8.67;;
5121;SDS011;2563;52.242;7.956;2023-02-15T04:41:58;22.20;;;8.90;;
5121;SDS011;2563;52.242;7.956;2023-02-15T04:44:23;23.37;;;10.73;;
5121;SDS011;2563;52.242;7.956;2023-02-15T04:46:48;21.77;;;10.00;;
5121;SDS011;2563;52.242;7.956;2023-02-15T04:49:14;19.30;;;8.70;;
5121;SDS011;2563;52.242;7.956;2023-02-15T04:51:39;23.73;;;10.10;;
5121;SDS011;2563;52.242;7.956;2023-02-15T04:54:04;24.07;;;9.17;;
5121;SDS011;2563;52.242;7.956;2023-02-15T04:56:33;24.30;;;9.97;;
5121;SDS011;2563;52.242;7.956;2023-02-15T04:58:59;26.37;;;9.37;;
5121;SDS011;2563;52.242;7.956;2023-02-15T05:01:25;21.97;;;9.30;;
5121;SDS011;2563;52.242;7.956;2023-02-15T05:03:50;20.40;;;8.70;;
5121;SDS011;2563;52.242;7.956;2023-02-15T05:06:16;28.30;;;11.33;;
5121;SDS011;2563;52.242;7.956;2023-02-15T05:08:41;18.73;;;8.63;;
5121;SDS011;2563;52.242;7.956;2023-02-15T05:11:06;29.47;;;11.10;;
5121;SDS011;2563;52.242;7.956;2023-02-15T05:13:32;30.13;;;9.77;;
5121;SDS011;2563;52.242;7.956;2023-02-15T05:15:57;23.60;;;9.53;;
5121;SDS011;2563;52.242;7.956;2023-02-15T05:18:22;21.17;;;10.53;;
5121;SDS011;2563;52.242;7.956;2023-02-15T05:20:48;27.37;;;11.10;;
5121;SDS011;2563;52.242;7.956;2023-02-15T05:23:13;26.17;;;10.50;;
5121;SDS011;2563;52.242;7.956;2023-02-15T05:25:39;28.83;;;9.80;;
5121;SDS011;2563;52.242;7.956;2023-02-15T05:28:23;23.27;;;9.40;;
5121;SDS011;2563;52.242;7.956;2023-02-15T05:30:51;22.93;;;9.30;;
5121;SDS011;2563;52.242;7.956;2023-02-15T05:33:24;29.40;;;11.03;;
5121;SDS011;2563;52.242;7.956;2023-02-15T05:35:49;29.77;;;10.37;;
5121;SDS011;2563;52.242;7.956;2023-02-15T05:38:16;25.80;;;9.83;;
5121;SDS011;2563;52.242;7.956;2023-02-15T05:40:41;19.73;;;8.53;;
5121;SDS011;2563;52.242;7.956;2023-02-15T05:43:06;25.03;;;10.13;;
5121;SDS011;2563;52.242;7.956;2023-02-15T05:45:31;25.73;;;9.60;;
5121;SDS011;2563;52.242;7.956;2023-02-15T05:47:57;25.67;;;10.00;;
5121;SDS011;2563;52.242;7.956;2023-02-15T05:50:23;28.20;;;10.60;;
5121;SDS011;2563;52.242;7.956;2023-02-15T05:52:48;26.73;;;10.10;;
5121;SDS011;2563;52.242;7.956;2023-02-15T05:55:14;28.70;;;11.47;;
5121;SDS011;2563;52.242;7.956;2023-02-15T05:57:39;38.20;;;11.47;;
5121;SDS011;2563;52.242;7.956;2023-02-15T06:00:05;24.93;;;10.13;;
5121;SDS011;2563;52.242;7.956;2023-02-15T06:02:34;32.33;;;10.50;;
5121;SDS011;2563;52.242;7.956;2023-02-15T06:05:00;24.90;;;10.23;;
5121;SDS011;2563;52.242;7.956;2023-02-15T06:07:25;27.27;;;11.03;;
5121;SDS011;2563;52.242;7.956;2023-02-15T06:09:51;26.00;;;9.70;;
5121;SDS011;2563;52.242;7.956;2023-02-15T06:12:16;27.70;;;11.00;;
5121;SDS011;2563;52.242;7.956;2023-02-15T06:14:41;23.37;;;10.20;;
5121;SDS011;2563;52.242;7.956;2023-02-15T06:17:07;30.10;;;10.40;;
5121;SDS011;2563;52.242;7.956;2023-02-15T06:19:32;28.53;;;10.53;;
5121;SDS011;2563;52.242;7.956;2023-02-15T06:21:58;26.83;;;10.27;;
5121;SDS011;2563;52.242;7.956;2023-02-15T06:24:23;26.23;;;9.80;;
5121;SDS011;2563;52.242;7.956;2023-02-15T06:26:48;32.03;;;11.87;;
5121;SDS011;2563;52.242;7.956;2023-02-15T06:29:14;27.87;;;11.00;;
5121;SDS011;2563;52.242;7.956;2023-02-15T06:31:39;26.50;;;10.80;;
5121;SDS011;2563;52.242;7.956;2023-02-15T06:34:04;25.17;;;9.40;;
5121;SDS011;2563;52.242;7.956;2023-02-15T06:36:30;28.07;;;11.33;;
5121;SDS011;2563;52.242;7.956;2023-02-15T06:38:56;27.53;;;11.50;;
5121;SDS011;2563;52.242;7.956;2023-02-15T06:41:22;26.37;;;9.60;;
5121;SDS011;2563;52.242;7.956;2023-02-15T06:43:48;26.60;;;11.17;;
5121;SDS011;2563;52.242;7.956;2023-02-15T06:46:14;28.13;;;10.50;;
5121;SDS011;2563;52.242;7.956;2023-02-15T06:48:39;30.40;;;11.00;;
5121;SDS011;2563;52.242;7.956;2023-02-15T06:51:04;22.83;;;9.87;;
5121;SDS011;2563;52.242;7.956;2023-02-15T06:53:30;28.73;;;10.40;;
5121;SDS011;2563;52.242;7.956;2023-02-15T06:56:02;28.40;;;11.83;;
5121;SDS011;2563;52.242;7.956;2023-02-15T06:58:31;29.00;;;10.73;;
5121;SDS011;2563;52.242;7.956;2023-02-15T07:00:57;26.33;;;10.93;;
5121;SDS011;2563;52.242;7.956;2023-02-15T07:03:22;26.03;;;11.00;;
5121;SDS011;2563;52.242;7.956;2023-02-15T07:05:48;25.27;;;10.93;;
5121;SDS011;2563;52.242;7.956;2023-02-15T07:08:14;26.27;;;11.43;;
5121;SDS011;2563;52.242;7.956;2023-02-15T07:10:42;33.53;;;11.73;;
5121;SDS011;2563;52.242;7.956;2023-02-15T07:13:08;25.93;;;10.33;;
5121;SDS011;2563;52.242;7.956;2023-02-15T07:15:34;26.30;;;10.50;;
5121;SDS011;2563;52.242;7.956;2023-02-15T07:17:59;28.60;;;11.70;;
5121;SDS011;2563;52.242;7.956;2023-02-15T07:20:24;29.17;;;11.23;;
5121;SDS011;2563;52.242;7.956;2023-02-15T07:22:50;28.30;;;12.07;;
5121;SDS011;2563;52.242;7.956;2023-02-15T07:25:16;36.33;;;11.40;;
5121;SDS011;2563;52.242;7.956;2023-02-15T07:27:42;27.00;;;10.13;;
5121;SDS011;2563;52.242;7.956;2023-02-15T07:30:09;37.37;;;11.33;;
5121;SDS011;2563;52.242;7.956;2023-02-15T07:32:36;29.03;;;11.60;;
5121;SDS011;2563;52.242;7.956;2023-02-15T07:35:22;33.40;;;12.57;;
5121;SDS011;2563;52.242;7.956;2023-02-15T07:37:47;43.27;;;13.07;;
5121;SDS011;2563;52.242;7.956;2023-02-15T07:40:12;32.63;;;12.67;;
5121;SDS011;2563;52.242;7.956;2023-02-15T07:42:38;33.80;;;12.80;;
5121;SDS011;2563;52.242;7.956;2023-02-15T07:45:03;39.40;;;16.33;;
5121;SDS011;2563;52.242;7.956;2023-02-15T07:47:29;36.93;;;14.93;;
5121;SDS011;2563;52.242;7.956;2023-02-15T07:49:54;38.03;;;15.40;;
5121;SDS011;2563;52.242;7.956;2023-02-15T07:52:19;39.20;;;14.40;;
5121;SDS011;2563;52.242;7.956;2023-02-15T07:54:45;31.93;;;14.30;;
5121;SDS011;2563;52.242;7.956;2023-02-15T07:57:10;49.80;;;13.17;;
5121;SDS011;2563;52.242;7.956;2023-02-15T07:59:35;32.90;;;12.20;;
5121;SDS011;2563;52.242;7.956;2023-02-15T08:02:01;34.97;;;12.93;;
5121;SDS011;2563;52.242;7.956;2023-02-15T08:04:26;32.90;;;13.50;;
5121;SDS011;2563;52.242;7.956;2023-02-15T08:06:52;32.37;;;12.60;;
5121;SDS011;2563;52.242;7.956;2023-02-15T08:09:19;40.00;;;12.10;;
5121;SDS011;2563;52.242;7.956;2023-02-15T08:11:45;35.40;;;14.17;;
5121;SDS011;2563;52.242;7.956;2023-02-15T08:14:20;32.10;;;12.77;;
5121;SDS011;2563;52.242;7.956;2023-02-15T08:16:53;34.80;;;14.43;;
5121;SDS011;2563;52.242;7.956;2023-02-15T08:19:22;30.70;;;13.10;;
5121;SDS011;2563;52.242;7.956;2023-02-15T08:21:50;32.47;;;13.10;;
5121;SDS011;2563;52.242;7.956;2023-02-15T08:24:36;34.07;;;13.47;;
5121;SDS011;2563;52.242;7.956;2023-02-15T08:27:03;31.30;;;12.50;;
5121;SDS011;2563;52.242;7.956;2023-02-15T08:29:29;28.97;;;12.70;;
5121;SDS011;2563;52.242;7.956;2023-02-15T08:31:56;33.03;;;14.30;;
5121;SDS011;2563;52.242;7.956;2023-02-15T08:34:28;31.80;;;13.33;;
5121;SDS011;2563;52.242;7.956;2023-02-15T08:36:55;34.67;;;13.00;;
5121;SDS011;2563;52.242;7.956;2023-02-15T08:39:21;31.23;;;14.40;;
5121;SDS011;2563;52.242;7.956;2023-02-15T08:41:47;35.73;;;14.20;;
5121;SDS011;2563;52.242;7.956;2023-02-15T08:44:14;33.77;;;14.30;;
5121;SDS011;2563;52.242;7.956;2023-02-15T08:46:41;32.40;;;13.80;;
5121;SDS011;2563;52.242;7.956;2023-02-15T08:49:08;30.27;;;13.60;;
5121;SDS011;2563;52.242;7.956;2023-02-15T08:51:36;31.07;;;12.63;;
5121;SDS011;2563;52.242;7.956;2023-02-15T08:54:04;32.13;;;13.67;;
5121;SDS011;2563;52.242;7.956;2023-02-15T08:56:36;37.77;;;15.00;;
5121;SDS011;2563;52.242;7.956;2023-02-15T08:59:03;39.10;;;15.30;;
5121;SDS011;2563;52.242;7.956;2023-02-15T09:01:30;39.50;;;14.63;;
5121;SDS011;2563;52.242;7.956;2023-02-15T09:03:58;35.67;;;15.27;;
5121;SDS011;2563;52.242;7.956;2023-02-15T09:06:25;33.93;;;15.43;;
5121;SDS011;2563;52.242;7.956;2023-02-15T09:08:51;38.37;;;15.13;;
5121;SDS011;2563;52.242;7.956;2023-02-15T09:11:18;53.43;;;15.83;;
5121;SDS011;2563;52.242;7.956;2023-02-15T09:13:49;38.73;;;14.43;;
5121;SDS011;2563;52.242;7.956;2023-02-15T09:16:17;36.33;;;15.63;;
5121;SDS011;2563;52.242;7.956;2023-02-15T09:18:43;31.70;;;14.93;;
5121;SDS011;2563;52.242;7.956;2023-02-15T09:21:09;39.10;;;14.90;;
5121;SDS011;2563;52.242;7.956;2023-02-15T09:23:38;38.23;;;14.40;;
5121;SDS011;2563;52.242;7.956;2023-02-15T09:26:05;29.30;;;14.03;;
5121;SDS011;2563;52.242;7.956;2023-02-15T09:28:33;38.23;;;14.83;;
5121;SDS011;2563;52.242;7.956;2023-02-15T09:31:09;33.40;;;14.23;;
5121;SDS011;2563;52.242;7.956;2023-02-15T09:33:35;25.03;;;12.53;;
5121;SDS011;2563;52.242;7.956;2023-02-15T09:36:02;31.87;;;13.27;;
5121;SDS011;2563;52.242;7.956;2023-02-15T09:38:28;28.90;;;12.93;;
5121;SDS011;2563;52.242;7.956;2023-02-15T09:40:59;27.67;;;13.27;;
5121;SDS011;2563;52.242;7.956;2023-02-15T09:46:28;30.70;;;12.80;;
5121;SDS011;2563;52.242;7.956;2023-02-15T09:49:02;30.37;;;12.37;;
5121;SDS011;2563;52.242;7.956;2023-02-15T09:56:58;30.50;;;13.70;;
5121;SDS011;2563;52.242;7.956;2023-02-15T09:59:44;36.80;;;13.90;;
5121;SDS011;2563;52.242;7.956;2023-02-15T10:15:52;32.50;;;14.77;;
5121;SDS011;2563;52.242;7.956;2023-02-15T10:37:17;39.23;;;16.40;;
5121;SDS011;2563;52.242;7.956;2023-02-15T10:42:20;38.90;;;17.03;;
5121;SDS011;2563;52.242;7.956;2023-02-15T10:50:23;48.97;;;17.47;;
5121;SDS011;2563;52.242;7.956;2023-02-15T10:52:57;35.60;;;18.10;;
5121;SDS011;2563;52.242;7.956;2023-02-15T11:06:46;44.77;;;17.83;;
5121;SDS011;2563;52.242;7.956;2023-02-15T11:09:17;37.67;;;17.40;;
5121;SDS011;2563;52.242;7.956;2023-02-15T11:11:48;38.47;;;17.20;;
5121;SDS011;2563;52.242;7.956;2023-02-15T11:14:17;40.87;;;19.33;;
5121;SDS011;2563;52.242;7.956;2023-02-15T11:17:04;37.27;;;17.90;;
5121;SDS011;2563;52.242;7.956;2023-02-15T11:19:35;40.30;;;17.47;;
5121;SDS011;2563;52.242;7.956;2023-02-15T11:22:10;42.10;;;18.13;;
5121;SDS011;2563;52.242;7.956;2023-02-15T11:24:40;37.57;;;19.23;;
5121;SDS011;2563;52.242;7.956;2023-02-15T11:27:17;42.47;;;19.63;;
5121;SDS011;2563;52.242;7.956;2023-02-15T11:32:23;35.53;;;17.13;;
5121;SDS011;2563;52.242;7.956;2023-02-15T11:34:58;39.50;;;19.00;;
5121;SDS011;2563;52.242;7.956;2023-02-15T11:37:33;38.87;;;19.30;;
5121;SDS011;2563;52.242;7.956;2023-02-15T11:40:06;40.33;;;20.03;;
5121;SDS011;2563;52.242;7.956;2023-02-15T11:42:43;36.27;;;18.90;;
5121;SDS011;2563;52.242;7.956;2023-02-15T11:45:19;38.50;;;18.70;;
5121;SDS011;2563;52.242;7.956;2023-02-15T11:47:48;41.67;;;19.13;;
5121;SDS011;2563;52.242;7.956;2023-02-15T11:50:14;40.80;;;20.63;;
5121;SDS011;2563;52.242;7.956;2023-02-15T11:52:42;38.63;;;18.50;;
5121;SDS011;2563;52.242;7.956;2023-02-15T11:55:14;38.83;;;19.63;;
5121;SDS011;2563;52.242;7.956;2023-02-15T11:57:47;44.00;;;20.33;;
5121;SDS011;2563;52.242;7.956;2023-02-15T12:00:23;34.23;;;17.23;;
5121;SDS011;2563;52.242;7.956;2023-02-15T12:02:56;38.53;;;20.23;;
5121;SDS011;2563;52.242;7.956;2023-02-15T12:05:23;35.57;;;18.87;;
5121;SDS011;2563;52.242;7.956;2023-02-15T12:07:52;44.80;;;20.87;;
5121;SDS011;2563;52.242;7.956;2023-02-15T12:10:23;37.40;;;20.40;;
5121;SDS011;2563;52.242;7.956;2023-02-15T12:15:44;41.87;;;20.33;;
5121;SDS011;2563;52.242;7.956;2023-02-15T12:21:10;36.30;;;18.07;;
5121;SDS011;2563;52.242;7.956;2023-02-15T12:23:48;42.00;;;20.90;;
5121;SDS011;2563;52.242;7.956;2023-02-15T12:26:27;40.20;;;19.03;;
5121;SDS011;2563;52.242;7.956;2023-02-15T12:28:59;38.93;;;17.50;;
5121;SDS011;2563;52.242;7.956;2023-02-15T12:31:30;43.63;;;17.57;;
5121;SDS011;2563;52.242;7.956;2023-02-15T12:33:59;37.07;;;19.00;;
5121;SDS011;2563;52.242;7.956;2023-02-15T12:36:40;37.67;;;18.63;;
5121;SDS011;2563;52.242;7.956;2023-02-15T12:42:00;35.90;;;16.60;;
5121;SDS011;2563;52.242;7.956;2023-02-15T12:44:30;40.63;;;18.70;;
5121;SDS011;2563;52.242;7.956;2023-02-15T12:46:56;37.13;;;16.97;;
5121;SDS011;2563;52.242;7.956;2023-02-15T12:49:40;36.43;;;17.80;;
5121;SDS011;2563;52.242;7.956;2023-02-15T12:54:47;43.90;;;18.17;;
5121;SDS011;2563;52.242;7.956;2023-02-15T12:57:14;41.93;;;17.37;;
5121;SDS011;2563;52.242;7.956;2023-02-15T13:00:02;39.50;;;18.73;;
5121;SDS011;2563;52.242;7.956;2023-02-15T13:02:52;35.60;;;18.70;;
5121;SDS011;2563;52.242;7.956;2023-02-15T13:05:54;35.80;;;16.50;;
5121;SDS011;2563;52.242;7.956;2023-02-15T13:08:15;40.87;;;17.97;;
5121;SDS011;2563;52.242;7.956;2023-02-15T13:11:04;36.70;;;18.80;;
5121;SDS011;2563;52.242;7.956;2023-02-15T13:13:28;39.50;;;19.50;;
5121;SDS011;2563;52.242;7.956;2023-02-15T13:15:58;35.57;;;18.13;;
5121;SDS011;2563;52.242;7.956;2023-02-15T13:18:34;40.90;;;18.80;;
5121;SDS011;2563;52.242;7.956;2023-02-15T13:23:51;37.97;;;18.17;;
5121;SDS011;2563;52.242;7.956;2023-02-15T13:26:23;41.63;;;18.57;;
5121;SDS011;2563;52.242;7.956;2023-02-15T13:28:53;41.30;;;16.93;;
5121;SDS011;2563;52.242;7.956;2023-02-15T13:31:23;37.23;;;18.40;;
5121;SDS011;2563;52.242;7.956;2023-02-15T13:33:56;35.43;;;18.07;;
5121;SDS011;2563;52.242;7.956;2023-02-15T13:44:25;37.43;;;18.00;;
5121;SDS011;2563;52.242;7.956;2023-02-15T13:47:02;36.27;;;18.10;;
5121;SDS011;2563;52.242;7.956;2023-02-15T13:57:31;39.67;;;18.13;;
5121;SDS011;2563;52.242;7.956;2023-02-15T14:00:04;34.43;;;16.60;;
5121;SDS011;2563;52.242;7.956;2023-02-15T14:16:29;38.20;;;17.57;;
5121;SDS011;2563;52.242;7.956;2023-02-15T14:19:25;35.60;;;16.97;;
5121;SDS011;2563;52.242;7.956;2023-02-15T14:22:22;35.30;;;18.37;;
5121;SDS011;2563;52.242;7.956;2023-02-15T14:30:18;38.93;;;18.57;;
5121;SDS011;2563;52.242;7.956;2023-02-15T14:32:46;31.17;;;16.07;;
5121;SDS011;2563;52.242;7.956;2023-02-15T14:41:09;36.10;;;17.23;;
5121;SDS011;2563;52.242;7.956;2023-02-15T14:49:30;43.17;;;17.37;;
5121;SDS011;2563;52.242;7.956;2023-02-15T14:59:26;37.83;;;17.40;;
5121;SDS011;2563;52.242;7.956;2023-02-15T15:04:33;40.10;;;16.63;;
5121;SDS011;2563;52.242;7.956;2023-02-15T15:07:00;44.50;;;18.40;;
5121;SDS011;2563;52.242;7.956;2023-02-15T15:09:33;37.33;;;17.20;;
5121;SDS011;2563;52.242;7.956;2023-02-15T15:12:35;40.60;;;18.80;;
5121;SDS011;2563;52.242;7.956;2023-02-15T15:15:02;36.27;;;17.00;;
5121;SDS011;2563;52.242;7.956;2023-02-15T15:20:04;38.53;;;18.30;;
5121;SDS011;2563;52.242;7.956;2023-02-15T15:22:32;41.73;;;18.23;;
5121;SDS011;2563;52.242;7.956;2023-02-15T15:25:39;47.40;;;18.77;;
5121;SDS011;2563;52.242;7.956;2023-02-15T15:28:02;36.17;;;16.93;;
5121;SDS011;2563;52.242;7.956;2023-02-15T15:49:30;43.83;;;19.93;;
5121;SDS011;2563;52.242;7.956;2023-02-15T15:52:01;40.77;;;18.23;;
5121;SDS011;2563;52.242;7.956;2023-02-15T15:54:28;38.67;;;18.70;;
5121;SDS011;2563;52.242;7.956;2023-02-15T15:56:56;38.97;;;18.57;;
5121;SDS011;2563;52.242;7.956;2023-02-15T15:59:26;44.73;;;17.77;;
5121;SDS011;2563;52.242;7.956;2023-02-15T16:01:55;35.00;;;17.87;;
5121;SDS011;2563;52.242;7.956;2023-02-15T16:04:29;38.30;;;17.33;;
5121;SDS011;2563;52.242;7.956;2023-02-15T16:06:57;40.07;;;18.80;;
5121;SDS011;2563;52.242;7.956;2023-02-15T16:09:38;45.17;;;19.43;;
5121;SDS011;2563;52.242;7.956;2023-02-15T16:12:03;42.33;;;18.90;;
5121;SDS011;2563;52.242;7.956;2023-02-15T16:14:35;51.73;;;18.60;;
5121;SDS011;2563;52.242;7.956;2023-02-15T16:17:04;42.37;;;18.60;;
5121;SDS011;2563;52.242;7.956;2023-02-15T16:19:32;46.40;;;19.80;;
5121;SDS011;2563;52.242;7.956;2023-02-15T16:22:02;46.37;;;22.37;;
5121;SDS011;2563;52.242;7.956;2023-02-15T16:29:51;42.63;;;19.80;;
5121;SDS011;2563;52.242;7.956;2023-02-15T16:32:21;42.27;;;16.37;;
5121;SDS011;2563;52.242;7.956;2023-02-15T16:34:59;48.60;;;18.60;;
5121;SDS011;2563;52.242;7.956;2023-02-15T16:37:36;39.57;;;17.17;;
5121;SDS011;2563;52.242;7.956;2023-02-15T16:40:01;42.13;;;19.77;;
5121;SDS011;2563;52.242;7.956;2023-02-15T16:42:27;42.53;;;19.83;;
5121;SDS011;2563;52.242;7.956;2023-02-15T16:45:09;39.63;;;18.17;;
5121;SDS011;2563;52.242;7.956;2023-02-15T16:47:40;38.80;;;16.17;;
5121;SDS011;2563;52.242;7.956;2023-02-15T16:50:10;36.53;;;16.50;;
5121;SDS011;2563;52.242;7.956;2023-02-15T16:52:43;41.90;;;16.77;;
5121;SDS011;2563;52.242;7.956;2023-02-15T16:55:25;40.30;;;17.97;;
5121;SDS011;2563;52.242;7.956;2023-02-15T16:58:00;45.47;;;19.43;;
5121;SDS011;2563;52.242;7.956;2023-02-15T17:00:30;40.23;;;15.83;;
5121;SDS011;2563;52.242;7.956;2023-02-15T17:02:59;33.70;;;16.40;;
5121;SDS011;2563;52.242;7.956;2023-02-15T17:05:32;35.07;;;16.73;;
5121;SDS011;2563;52.242;7.956;2023-02-15T17:11:12;36.87;;;16.53;;
5121;SDS011;2563;52.242;7.956;2023-02-15T17:19:59;36.90;;;17.23;;
5121;SDS011;2563;52.242;7.956;2023-02-15T17:22:18;45.50;;;17.77;;
5121;SDS011;2563;52.242;7.956;2023-02-15T17:24:47;36.73;;;16.80;;
5121;SDS011;2563;52.242;7.956;2023-02-15T17:27:22;37.97;;;16.77;;
5121;SDS011;2563;52.242;7.956;2023-02-15T17:29:50;35.73;;;15.80;;
5121;SDS011;2563;52.242;7.956;2023-02-15T17:32:21;43.50;;;16.30;;
5121;SDS011;2563;52.242;7.956;2023-02-15T17:37:30;47.30;;;16.77;;
5121;SDS011;2563;52.242;7.956;2023-02-15T17:42:42;36.87;;;15.70;;
5121;SDS011;2563;52.242;7.956;2023-02-15T17:45:08;36.40;;;15.07;;
5121;SDS011;2563;52.242;7.956;2023-02-15T17:47:33;40.47;;;17.07;;
5121;SDS011;2563;52.242;7.956;2023-02-15T17:49:59;36.80;;;16.70;;
5121;SDS011;2563;52.242;7.956;2023-02-15T17:52:28;38.90;;;17.23;;
5121;SDS011;2563;52.242;7.956;2023-02-15T17:54:54;34.50;;;16.77;;
5121;SDS011;2563;52.242;7.956;2023-02-15T17:57:38;35.00;;;17.13;;
5121;SDS011;2563;52.242;7.956;2023-02-15T18:00:04;40.50;;;17.43;;
5121;SDS011;2563;52.242;7.956;2023-02-15T18:02:50;39.50;;;17.37;;
5121;SDS011;2563;52.242;7.956;2023-02-15T18:05:34;42.30;;;17.33;;
5121;SDS011;2563;52.242;7.956;2023-02-15T18:08:18;38.63;;;17.37;;
5121;SDS011;2563;52.242;7.956;2023-02-15T18:11:08;40.17;;;17.90;;
5121;SDS011;2563;52.242;7.956;2023-02-15T18:13:53;39.93;;;18.40;;
5121;SDS011;2563;52.242;7.956;2023-02-15T18:16:22;37.77;;;18.03;;
5121;SDS011;2563;52.242;7.956;2023-02-15T18:18:50;41.07;;;18.40;;
5121;SDS011;2563;52.242;7.956;2023-02-15T18:21:17;43.53;;;18.20;;
5121;SDS011;2563;52.242;7.956;2023-02-15T18:23:42;41.27;;;17.10;;
5121;SDS011;2563;52.242;7.956;2023-02-15T18:26:09;38.30;;;16.37;;
5121;SDS011;2563;52.242;7.956;2023-02-15T18:28:41;38.60;;;15.80;;
5121;SDS011;2563;52.242;7.956;2023-02-15T18:31:06;40.00;;;16.60;;
5121;SDS011;2563;52.242;7.956;2023-02-15T18:33:38;33.77;;;13.50;;
5121;SDS011;2563;52.242;7.956;2023-02-15T18:36:10;32.33;;;14.30;;
5121;SDS011;2563;52.242;7.956;2023-02-15T18:38:41;34.97;;;14.80;;